sensor_id;sensor_type;location;lat;lon;timestamp;pressure;altitude;pressure_sealevel;temperature;humidity
51249;BME280;39642;47.556;18.728;2023-05-01T00:01:20;99866.25;;;20.71;36.19
51249;BME280;39642;47.556;18.728;2023-05-01T00:03:46;99868.03;;;20.71;35.82
51249;BME280;39642;47.556;18.728;2023-05-01T00:06:12;99867.19;;;20.70;35.88
51249;BME280;39642;47.556;18.728;2023-05-01T00:08:37;99863.69;;;20.70;35.49
51249;BME280;39642;47.556;18.728;2023-05-01T00:11:04;99869.00;;;20.70;35.78
51249;BME280;39642;47.556;18.728;2023-05-01T00:13:31;99866.34;;;20.70;36.10
51249;BME280;39642;47.556;18.728;2023-05-01T00:15:56;99864.56;;;20.70;35.60
51249;BME280;39642;47.556;18.728;2023-05-01T00:18:22;99861.06;;;20.70;35.83
51249;BME280;39642;47.556;18.728;2023-05-01T00:20:48;99860.22;;;20.69;35.55
51249;BME280;39642;47.556;18.728;2023-05-01T00:23:14;99855.84;;;20.68;35.24
51249;BME280;39642;47.556;18.728;2023-05-01T00:25:40;99861.97;;;20.69;35.76
51249;BME280;39642;47.556;18.728;2023-05-01T00:28:06;99860.22;;;20.69;35.61
51249;BME280;39642;47.556;18.728;2023-05-01T00:30:32;99862.84;;;20.69;35.60
51249;BME280;39642;47.556;18.728;2023-05-01T00:32:59;99861.13;;;20.68;36.05
51249;BME280;39642;47.556;18.728;2023-05-01T00:35:26;99868.22;;;20.68;36.31
51249;BME280;39642;47.556;18.728;2023-05-01T00:37:52;99862.94;;;20.68;35.49
51249;BME280;39642;47.556;18.728;2023-05-01T00:40:18;99865.59;;;20.68;35.92
51249;BME280;39642;47.556;18.728;2023-05-01T00:42:44;99865.59;;;20.68;36.09
51249;BME280;39642;47.556;18.728;2023-05-01T00:45:10;99869.06;;;20.68;35.42
51249;BME280;39642;47.556;18.728;2023-05-01T00:47:37;99866.44;;;20.68;35.56
51249;BME280;39642;47.556;18.728;2023-05-01T00:50:04;99862.09;;;20.67;35.41
51249;BME280;39642;47.556;18.728;2023-05-01T00:52:30;99862.09;;;20.67;36.25
51249;BME280;39642;47.556;18.728;2023-05-01T00:54:56;99863.87;;;20.67;35.97
51249;BME280;39642;47.556;18.728;2023-05-01T00:57:23;99863.03;;;20.66;35.90
51249;BME280;39642;47.556;18.728;2023-05-01T00:59:49;99862.09;;;20.67;35.93
51249;BME280;39642;47.556;18.728;2023-05-01T01:02:15;99860.38;;;20.66;36.14
51249;BME280;39642;47.556;18.728;2023-05-01T01:04:43;99859.44;;;20.67;35.71
51249;BME280;39642;47.556;18.728;2023-05-01T01:07:31;99859.44;;;20.67;35.92
51249;BME280;39642;47.556;18.728;2023-05-01T01:10:11;99857.72;;;20.66;35.68
51249;BME280;39642;47.556;18.728;2023-05-01T01:12:53;99863.03;;;20.66;35.76
51249;BME280;39642;47.556;18.728;2023-05-01T01:15:34;99856.87;;;20.66;35.77
51249;BME280;39642;47.556;18.728;2023-05-01T01:18:11;99853.38;;;20.65;36.24
51249;BME280;39642;47.556;18.728;2023-05-01T01:20:45;99851.59;;;20.66;36.05
51249;BME280;39642;47.556;18.728;2023-05-01T01:23:30;99857.72;;;20.66;35.79
51249;BME280;39642;47.556;18.728;2023-05-01T01:34:27;99854.31;;;20.64;36.12
51249;BME280;39642;47.556;18.728;2023-05-01T01:37:10;99849.03;;;20.64;35.85
51249;BME280;39642;47.556;18.728;2023-05-01T01:40:00;99853.38;;;20.65;36.29
51249;BME280;39642;47.556;18.728;2023-05-01T01:42:35;99842.88;;;20.64;35.91
51249;BME280;39642;47.556;18.728;2023-05-01T01:45:06;99848.19;;;20.64;36.14
51249;BME280;39642;47.556;18.728;2023-05-01T01:47:35;99842.03;;;20.63;35.91
51249;BME280;39642;47.556;18.728;2023-05-01T01:50:06;99840.25;;;20.64;35.89
51249;BME280;39642;47.556;18.728;2023-05-01T01:52:34;99843.84;;;20.63;35.44
51249;BME280;39642;47.556;18.728;2023-05-01T01:55:07;99849.97;;;20.63;36.01
51249;BME280;39642;47.556;18.728;2023-05-01T01:57:37;99849.97;;;20.63;36.14
51249;BME280;39642;47.556;18.728;2023-05-01T02:00:08;99851.78;;;20.63;35.97
51249;BME280;39642;47.556;18.728;2023-05-01T02:02:39;99851.78;;;20.63;36.13
51249;BME280;39642;47.556;18.728;2023-05-01T02:05:07;99851.78;;;20.63;35.89
51249;BME280;39642;47.556;18.728;2023-05-01T02:07:35;99848.25;;;20.62;35.48
51249;BME280;39642;47.556;18.728;2023-05-01T02:10:03;99850.06;;;20.62;35.95
51249;BME280;39642;47.556;18.728;2023-05-01T02:12:30;99850.91;;;20.62;35.52
51249;BME280;39642;47.556;18.728;2023-05-01T02:14:58;99856.19;;;20.62;35.89
51249;BME280;39642;47.556;18.728;2023-05-01T02:17:25;99854.44;;;20.63;36.17
51249;BME280;39642;47.556;18.728;2023-05-01T02:19:52;99861.47;;;20.62;35.69
51249;BME280;39642;47.556;18.728;2023-05-01T02:22:23;99859.78;;;20.61;35.42
51249;BME280;39642;47.556;18.728;2023-05-01T02:24:53;99858.00;;;20.62;35.78
51249;BME280;39642;47.556;18.728;2023-05-01T02:27:24;99852.69;;;20.62;36.24
51249;BME280;39642;47.556;18.728;2023-05-01T02:29:51;99849.22;;;20.61;35.67
51249;BME280;39642;47.556;18.728;2023-05-01T02:32:18;99853.56;;;20.62;35.71
51249;BME280;39642;47.556;18.728;2023-05-01T02:34:44;99849.22;;;20.61;35.82
51249;BME280;39642;47.556;18.728;2023-05-01T02:37:10;99858.00;;;20.62;35.49
51249;BME280;39642;47.556;18.728;2023-05-01T02:39:38;99854.50;;;20.61;35.92
51249;BME280;39642;47.556;18.728;2023-05-01T02:42:05;99855.34;;;20.62;36.25
51249;BME280;39642;47.556;18.728;2023-05-01T02:44:56;99854.50;;;20.61;35.70
51249;BME280;39642;47.556;18.728;2023-05-01T02:47:26;99859.78;;;20.61;35.86
51249;BME280;39642;47.556;18.728;2023-05-01T02:49:53;99858.06;;;20.60;36.26
51249;BME280;39642;47.556;18.728;2023-05-01T02:52:21;99863.37;;;20.60;35.88
51249;BME280;39642;47.556;18.728;2023-05-01T02:54:48;99860.72;;;20.60;35.68
51249;BME280;39642;47.556;18.728;2023-05-01T02:57:16;99858.06;;;20.60;35.50
51249;BME280;39642;47.556;18.728;2023-05-01T02:59:42;99854.59;;;20.59;36.12
51249;BME280;39642;47.556;18.728;2023-05-01T03:02:08;99853.75;;;20.59;35.56
51249;BME280;39642;47.556;18.728;2023-05-01T03:04:34;99858.06;;;20.60;35.54
51249;BME280;39642;47.556;18.728;2023-05-01T03:07:00;99858.06;;;20.60;35.38
51249;BME280;39642;47.556;18.728;2023-05-01T03:09:26;99860.81;;;20.58;35.84
51249;BME280;39642;47.556;18.728;2023-05-01T03:11:52;99859.03;;;20.59;35.80
51249;BME280;39642;47.556;18.728;2023-05-01T03:14:17;99863.47;;;20.58;35.69
51249;BME280;39642;47.556;18.728;2023-05-01T03:16:43;99865.16;;;20.59;36.25
51249;BME280;39642;47.556;18.728;2023-05-01T03:19:09;99869.59;;;20.59;36.30
51249;BME280;39642;47.556;18.728;2023-05-01T03:21:35;99870.56;;;20.58;36.13
51249;BME280;39642;47.556;18.728;2023-05-01T03:24:02;99872.25;;;20.59;35.94
51249;BME280;39642;47.556;18.728;2023-05-01T03:26:27;99874.06;;;20.58;36.03
51249;BME280;39642;47.556;18.728;2023-05-01T03:28:54;99876.69;;;20.58;36.34
51249;BME280;39642;47.556;18.728;2023-05-01T03:31:20;99875.84;;;20.58;35.84
51249;BME280;39642;47.556;18.728;2023-05-01T03:33:46;99879.34;;;20.58;36.10
51249;BME280;39642;47.556;18.728;2023-05-01T03:36:12;99870.56;;;20.58;36.09
51249;BME280;39642;47.556;18.728;2023-05-01T03:38:38;99874.13;;;20.57;36.10
51249;BME280;39642;47.556;18.728;2023-05-01T03:41:04;99873.22;;;20.58;35.73
51249;BME280;39642;47.556;18.728;2023-05-01T03:43:30;99874.13;;;20.57;35.50
51249;BME280;39642;47.556;18.728;2023-05-01T03:45:57;99871.50;;;20.57;35.75
51249;BME280;39642;47.556;18.728;2023-05-01T03:48:22;99876.69;;;20.58;35.83
51249;BME280;39642;47.556;18.728;2023-05-01T03:50:50;99870.56;;;20.58;35.98
51249;BME280;39642;47.556;18.728;2023-05-01T03:53:16;99870.56;;;20.58;35.62
51249;BME280;39642;47.556;18.728;2023-05-01T03:55:42;99865.28;;;20.58;35.65
51249;BME280;39642;47.556;18.728;2023-05-01T03:58:08;99875.84;;;20.58;36.12
51249;BME280;39642;47.556;18.728;2023-05-01T04:00:36;99869.69;;;20.57;36.20
51249;BME280;39642;47.556;18.728;2023-05-01T04:03:03;99874.06;;;20.58;36.16
51249;BME280;39642;47.556;18.728;2023-05-01T04:05:29;99873.22;;;20.58;36.07
51249;BME280;39642;47.556;18.728;2023-05-01T04:07:55;99874.97;;;20.57;36.11
51249;BME280;39642;47.556;18.728;2023-05-01T04:10:22;99877.63;;;20.57;35.88
51249;BME280;39642;47.556;18.728;2023-05-01T04:12:48;99876.78;;;20.57;35.74
51249;BME280;39642;47.556;18.728;2023-05-01T04:15:14;99883.78;;;20.58;36.03
51249;BME280;39642;47.556;18.728;2023-05-01T04:17:40;99880.28;;;20.57;36.13
51249;BME280;39642;47.556;18.728;2023-05-01T04:20:08;99873.22;;;20.58;35.69
51249;BME280;39642;47.556;18.728;2023-05-01T04:22:35;99877.53;;;20.59;35.49
51249;BME280;39642;47.556;18.728;2023-05-01T04:25:02;99873.94;;;20.60;35.66
51249;BME280;39642;47.556;18.728;2023-05-01T04:27:29;99873.94;;;20.60;35.57
51249;BME280;39642;47.556;18.728;2023-05-01T04:29:55;99878.22;;;20.63;35.52
51249;BME280;39642;47.556;18.728;2023-05-01T04:32:22;99882.66;;;20.62;35.55
51249;BME280;39642;47.556;18.728;2023-05-01T04:34:48;99882.56;;;20.64;35.43
51249;BME280;39642;47.556;18.728;2023-05-01T04:37:14;99875.41;;;20.66;35.41
51249;BME280;39642;47.556;18.728;2023-05-01T04:39:42;99876.25;;;20.66;35.21
51249;BME280;39642;47.556;18.728;2023-05-01T04:42:08;99883.25;;;20.67;35.33
51249;BME280;39642;47.556;18.728;2023-05-01T04:44:34;99882.31;;;20.68;35.45
51249;BME280;39642;47.556;18.728;2023-05-01T04:47:03;99886.66;;;20.69;35.16
51249;BME280;39642;47.556;18.728;2023-05-01T04:49:29;99881.28;;;20.71;35.13
51249;BME280;39642;47.556;18.728;2023-05-01T04:51:54;99889.13;;;20.72;35.02
51249;BME280;39642;47.556;18.728;2023-05-01T04:54:21;99882.03;;;20.73;35.08
51249;BME280;39642;47.556;18.728;2023-05-01T04:56:47;99888.19;;;20.73;35.08
51249;BME280;39642;47.556;18.728;2023-05-01T04:59:13;99890.75;;;20.75;35.12
51249;BME280;39642;47.556;18.728;2023-05-01T05:01:39;99888.94;;;20.75;35.06
51249;BME280;39642;47.556;18.728;2023-05-01T05:04:05;99881.84;;;20.76;34.96
51249;BME280;39642;47.556;18.728;2023-05-01T05:06:31;99883.56;;;20.77;34.95
51249;BME280;39642;47.556;18.728;2023-05-01T05:08:57;99883.50;;;20.78;34.90
51249;BME280;39642;47.556;18.728;2023-05-01T05:11:22;99893.13;;;20.79;34.91
51249;BME280;39642;47.556;18.728;2023-05-01T05:13:48;99881.63;;;20.81;34.92
51249;BME280;39642;47.556;18.728;2023-05-01T05:16:14;99887.63;;;20.83;34.94
51249;BME280;39642;47.556;18.728;2023-05-01T05:18:40;99889.38;;;20.84;34.92
51249;BME280;39642;47.556;18.728;2023-05-01T05:21:07;99895.41;;;20.86;34.93
51249;BME280;39642;47.556;18.728;2023-05-01T05:23:36;99891.81;;;20.87;34.93
51249;BME280;39642;47.556;18.728;2023-05-01T05:26:02;99889.94;;;20.89;34.91
51249;BME280;39642;47.556;18.728;2023-05-01T05:28:28;99894.31;;;20.90;34.97
51249;BME280;39642;47.556;18.728;2023-05-01T05:30:55;99891.66;;;20.90;35.05
51249;BME280;39642;47.556;18.728;2023-05-01T05:33:22;99888.91;;;20.91;35.07
51249;BME280;39642;47.556;18.728;2023-05-01T05:35:50;99890.62;;;20.92;35.13
51249;BME280;39642;47.556;18.728;2023-05-01T05:38:17;99896.69;;;20.94;35.10
51249;BME280;39642;47.556;18.728;2023-05-01T05:40:42;99894.87;;;20.95;35.17
51249;BME280;39642;47.556;18.728;2023-05-01T05:43:08;99904.50;;;20.96;35.21
51249;BME280;39642;47.556;18.728;2023-05-01T05:45:35;99904.44;;;20.97;35.24
51249;BME280;39642;47.556;18.728;2023-05-01T05:48:02;99903.59;;;20.97;35.18
51249;BME280;39642;47.556;18.728;2023-05-01T05:50:28;99899.97;;;20.98;35.25
51249;BME280;39642;47.556;18.728;2023-05-01T05:52:54;99903.50;;;20.98;35.27
51249;BME280;39642;47.556;18.728;2023-05-01T05:55:20;99901.69;;;20.99;35.29
51249;BME280;39642;47.556;18.728;2023-05-01T05:57:46;99902.47;;;21.01;35.32
51249;BME280;39642;47.556;18.728;2023-05-01T06:00:12;99905.12;;;21.01;35.36
51249;BME280;39642;47.556;18.728;2023-05-01T06:02:38;99902.34;;;21.03;35.41
51249;BME280;39642;47.556;18.728;2023-05-01T06:05:04;99906.81;;;21.02;35.39
51249;BME280;39642;47.556;18.728;2023-05-01T06:07:30;99907.56;;;21.04;35.42
51249;BME280;39642;47.556;18.728;2023-05-01T06:09:56;99904.91;;;21.04;35.38
51249;BME280;39642;47.556;18.728;2023-05-01T06:12:30;99911.06;;;21.05;35.40
51249;BME280;39642;47.556;18.728;2023-05-01T06:14:57;99915.44;;;21.06;35.43
51249;BME280;39642;47.556;18.728;2023-05-01T06:17:23;99917.19;;;21.05;35.41
51249;BME280;39642;47.556;18.728;2023-05-01T06:19:50;99908.34;;;21.06;35.43
51249;BME280;39642;47.556;18.728;2023-05-01T06:22:18;99910.03;;;21.07;35.42
51249;BME280;39642;47.556;18.728;2023-05-01T06:24:44;99915.31;;;21.07;35.40
51249;BME280;39642;47.556;18.728;2023-05-01T06:27:10;99917.03;;;21.08;35.42
51249;BME280;39642;47.556;18.728;2023-05-01T06:29:36;99922.25;;;21.10;35.47
51249;BME280;39642;47.556;18.728;2023-05-01T06:32:02;99920.47;;;21.10;35.43
51249;BME280;39642;47.556;18.728;2023-05-01T06:34:29;99921.38;;;21.09;35.49
51249;BME280;39642;47.556;18.728;2023-05-01T06:36:55;99926.59;;;21.11;35.40
51249;BME280;39642;47.556;18.728;2023-05-01T06:39:21;99919.50;;;21.11;35.40
51249;BME280;39642;47.556;18.728;2023-05-01T06:41:47;99923.00;;;21.12;35.39
51249;BME280;39642;47.556;18.728;2023-05-01T06:44:14;99917.63;;;21.13;35.36
51249;BME280;39642;47.556;18.728;2023-05-01T06:46:39;99924.72;;;21.13;35.34
51249;BME280;39642;47.556;18.728;2023-05-01T06:49:05;99918.47;;;21.14;35.31
51249;BME280;39642;47.556;18.728;2023-05-01T06:51:31;99920.19;;;21.15;35.26
51249;BME280;39642;47.556;18.728;2023-05-01T06:53:57;99923.69;;;21.15;35.23
51249;BME280;39642;47.556;18.728;2023-05-01T06:56:23;99924.53;;;21.16;35.14
51249;BME280;39642;47.556;18.728;2023-05-01T06:58:49;99933.31;;;21.16;35.13
51249;BME280;39642;47.556;18.728;2023-05-01T07:01:15;99924.44;;;21.17;35.17
51249;BME280;39642;47.556;18.728;2023-05-01T07:03:42;99928.88;;;21.17;35.06
51249;BME280;39642;47.556;18.728;2023-05-01T07:06:08;99929.66;;;21.19;35.09
51249;BME280;39642;47.556;18.728;2023-05-01T07:08:34;99931.44;;;21.18;35.07
51249;BME280;39642;47.556;18.728;2023-05-01T07:11:00;99933.16;;;21.19;34.97
51249;BME280;39642;47.556;18.728;2023-05-01T07:13:26;99933.16;;;21.19;34.99
51249;BME280;39642;47.556;18.728;2023-05-01T07:15:52;99940.13;;;21.20;34.98
51249;BME280;39642;47.556;18.728;2023-05-01T07:18:18;99937.50;;;21.20;35.00
51249;BME280;39642;47.556;18.728;2023-05-01T07:20:44;99937.50;;;21.20;34.96
51249;BME280;39642;47.556;18.728;2023-05-01T07:23:10;99928.69;;;21.20;34.92
51249;BME280;39642;47.556;18.728;2023-05-01T07:25:36;99933.16;;;21.19;34.93
51249;BME280;39642;47.556;18.728;2023-05-01T07:28:02;99935.78;;;21.19;34.97
51249;BME280;39642;47.556;18.728;2023-05-01T07:30:30;99931.44;;;21.18;34.98
51249;BME280;39642;47.556;18.728;2023-05-01T07:32:57;99936.72;;;21.18;35.04
51249;BME280;39642;47.556;18.728;2023-05-01T07:35:23;99935.03;;;21.17;34.94
51249;BME280;39642;47.556;18.728;2023-05-01T07:37:50;99933.22;;;21.18;34.85
51249;BME280;39642;47.556;18.728;2023-05-01T07:40:17;99938.53;;;21.18;34.87
51249;BME280;39642;47.556;18.728;2023-05-01T07:42:43;99933.31;;;21.16;34.91
51249;BME280;39642;47.556;18.728;2023-05-01T07:45:09;99931.53;;;21.17;34.64
51249;BME280;39642;47.556;18.728;2023-05-01T07:47:35;99937.75;;;21.16;34.81
51249;BME280;39642;47.556;18.728;2023-05-01T07:50:01;99931.63;;;21.15;34.77
51249;BME280;39642;47.556;18.728;2023-05-01T07:52:27;99936.91;;;21.15;34.89
51249;BME280;39642;47.556;18.728;2023-05-01T07:54:54;99935.13;;;21.16;34.74
51249;BME280;39642;47.556;18.728;2023-05-01T07:57:20;99934.28;;;21.15;34.74
51249;BME280;39642;47.556;18.728;2023-05-01T07:59:48;99935.13;;;21.16;34.75
51249;BME280;39642;47.556;18.728;2023-05-01T08:02:17;99932.47;;;21.16;34.65
51249;BME280;39642;47.556;18.728;2023-05-01T08:04:43;99932.56;;;21.14;34.67
51249;BME280;39642;47.556;18.728;2023-05-01T08:07:10;99943.06;;;21.16;34.62
51249;BME280;39642;47.556;18.728;2023-05-01T08:09:36;99945.69;;;21.16;34.55
51249;BME280;39642;47.556;18.728;2023-05-01T08:12:02;99941.38;;;21.15;34.54
51249;BME280;39642;47.556;18.728;2023-05-01T08:14:28;99940.41;;;21.16;34.62
51249;BME280;39642;47.556;18.728;2023-05-01T08:16:54;99938.59;;;21.16;34.59
51249;BME280;39642;47.556;18.728;2023-05-01T08:19:20;99942.13;;;21.17;34.53
51249;BME280;39642;47.556;18.728;2023-05-01T08:21:46;99940.41;;;21.16;34.45
51249;BME280;39642;47.556;18.728;2023-05-01T08:24:12;99936.91;;;21.15;34.41
51249;BME280;39642;47.556;18.728;2023-05-01T08:26:38;99934.28;;;21.15;34.35
51249;BME280;39642;47.556;18.728;2023-05-01T08:29:04;99939.56;;;21.15;34.33
51249;BME280;39642;47.556;18.728;2023-05-01T08:31:30;99928.97;;;21.15;34.54
51249;BME280;39642;47.556;18.728;2023-05-01T08:33:55;99931.63;;;21.15;34.51
51249;BME280;39642;47.556;18.728;2023-05-01T08:36:21;99937.75;;;21.16;34.63
51249;BME280;39642;47.556;18.728;2023-05-01T08:38:47;99931.63;;;21.15;34.49
51249;BME280;39642;47.556;18.728;2023-05-01T08:41:15;99928.97;;;21.15;34.49
51249;BME280;39642;47.556;18.728;2023-05-01T08:43:42;99939.56;;;21.15;34.48
51249;BME280;39642;47.556;18.728;2023-05-01T08:46:11;99932.56;;;21.14;34.56
51249;BME280;39642;47.556;18.728;2023-05-01T08:48:41;99934.28;;;21.15;34.58
51249;BME280;39642;47.556;18.728;2023-05-01T08:51:09;99942.13;;;21.17;34.63
51249;BME280;39642;47.556;18.728;2023-05-01T08:53:35;99930.66;;;21.16;34.44
51249;BME280;39642;47.556;18.728;2023-05-01T08:56:05;99943.91;;;21.16;34.56
51249;BME280;39642;47.556;18.728;2023-05-01T08:58:32;99934.19;;;21.17;34.53
51249;BME280;39642;47.556;18.728;2023-05-01T09:01:00;99931.53;;;21.17;34.20
51249;BME280;39642;47.556;18.728;2023-05-01T09:03:30;99924.44;;;21.17;34.32
51249;BME280;39642;47.556;18.728;2023-05-01T09:05:59;99931.53;;;21.17;34.47
51249;BME280;39642;47.556;18.728;2023-05-01T09:08:27;99934.19;;;21.17;34.39
51249;BME280;39642;47.556;18.728;2023-05-01T09:10:54;99930.66;;;21.16;34.28
51249;BME280;39642;47.556;18.728;2023-05-01T09:13:24;99930.66;;;21.16;34.34
51249;BME280;39642;47.556;18.728;2023-05-01T09:15:50;99930.66;;;21.16;34.50
51249;BME280;39642;47.556;18.728;2023-05-01T09:18:15;99925.37;;;21.16;34.41
51249;BME280;39642;47.556;18.728;2023-05-01T09:20:41;99928.88;;;21.17;34.57
51249;BME280;39642;47.556;18.728;2023-05-01T09:23:07;99913.09;;;21.15;34.60
51249;BME280;39642;47.556;18.728;2023-05-01T09:25:33;99912.13;;;21.16;34.54
51249;BME280;39642;47.556;18.728;2023-05-01T09:27:59;99920.94;;;21.17;34.58
51249;BME280;39642;47.556;18.728;2023-05-01T09:30:36;99913.00;;;21.17;34.68
51249;BME280;39642;47.556;18.728;2023-05-01T09:33:12;99920.06;;;21.16;34.81
51249;BME280;39642;47.556;18.728;2023-05-01T09:35:52;99923.69;;;21.15;34.91
51249;BME280;39642;47.556;18.728;2023-05-01T09:38:21;99913.94;;;21.16;34.81
51249;BME280;39642;47.556;18.728;2023-05-01T09:40:47;99913.09;;;21.15;34.67
51249;BME280;39642;47.556;18.728;2023-05-01T09:43:22;99914.88;;;21.15;34.79
51249;BME280;39642;47.556;18.728;2023-05-01T09:46:01;99906.09;;;21.14;35.01
51249;BME280;39642;47.556;18.728;2023-05-01T09:48:29;99905.12;;;21.15;34.95
51249;BME280;39642;47.556;18.728;2023-05-01T09:50:56;99908.63;;;21.16;34.95
51249;BME280;39642;47.556;18.728;2023-05-01T09:53:38;99901.66;;;21.15;34.85
51249;BME280;39642;47.556;18.728;2023-05-01T09:56:04;99902.50;;;21.15;34.83
51249;BME280;39642;47.556;18.728;2023-05-01T09:58:31;99898.03;;;21.16;34.79
51249;BME280;39642;47.556;18.728;2023-05-01T10:00:57;99897.19;;;21.15;34.88
51249;BME280;39642;47.556;18.728;2023-05-01T10:03:23;99891.91;;;21.15;35.02
51249;BME280;39642;47.556;18.728;2023-05-01T10:05:49;99889.34;;;21.14;35.25
51249;BME280;39642;47.556;18.728;2023-05-01T10:08:14;99887.56;;;21.14;35.28
51249;BME280;39642;47.556;18.728;2023-05-01T10:10:41;99893.69;;;21.15;35.04
51249;BME280;39642;47.556;18.728;2023-05-01T10:13:15;99885.75;;;21.15;35.09
51249;BME280;39642;47.556;18.728;2023-05-01T10:15:43;99881.31;;;21.15;35.16
51249;BME280;39642;47.556;18.728;2023-05-01T10:18:11;99880.47;;;21.15;34.99
51249;BME280;39642;47.556;18.728;2023-05-01T10:20:37;99883.97;;;21.15;35.03
51249;BME280;39642;47.556;18.728;2023-05-01T10:23:03;99871.56;;;21.16;35.10
51249;BME280;39642;47.556;18.728;2023-05-01T10:25:30;99881.31;;;21.15;34.99
51249;BME280;39642;47.556;18.728;2023-05-01T10:27:57;99873.38;;;21.15;35.16
51249;BME280;39642;47.556;18.728;2023-05-01T10:30:25;99861.09;;;21.14;35.23
51249;BME280;39642;47.556;18.728;2023-05-01T10:32:51;99863.72;;;21.14;35.17
51249;BME280;39642;47.556;18.728;2023-05-01T10:35:22;99869.03;;;21.14;35.30
51249;BME280;39642;47.556;18.728;2023-05-01T10:38:04;99866.38;;;21.14;35.07
51249;BME280;39642;47.556;18.728;2023-05-01T10:43:15;99865.41;;;21.15;35.32
51249;BME280;39642;47.556;18.728;2023-05-01T10:45:43;99865.41;;;21.15;35.32
51249;BME280;39642;47.556;18.728;2023-05-01T10:48:08;99868.06;;;21.15;35.35
51249;BME280;39642;47.556;18.728;2023-05-01T10:50:34;99865.50;;;21.14;35.26
51249;BME280;39642;47.556;18.728;2023-05-01T10:53:20;99859.28;;;21.15;35.20
51249;BME280;39642;47.556;18.728;2023-05-01T10:55:47;99857.47;;;21.15;35.36
51249;BME280;39642;47.556;18.728;2023-05-01T11:01:26;99854.00;;;21.15;35.45
51249;BME280;39642;47.556;18.728;2023-05-01T11:03:53;99852.19;;;21.15;35.38
51249;BME280;39642;47.556;18.728;2023-05-01T11:06:19;99846.03;;;21.15;35.48
51249;BME280;39642;47.556;18.728;2023-05-01T11:08:45;99853.03;;;21.16;35.53
51249;BME280;39642;47.556;18.728;2023-05-01T11:21:48;99846.88;;;21.15;35.76
51249;BME280;39642;47.556;18.728;2023-05-01T11:24:15;99839.91;;;21.14;35.76
51249;BME280;39642;47.556;18.728;2023-05-01T11:26:44;99841.59;;;21.15;35.90
51249;BME280;39642;47.556;18.728;2023-05-01T11:29:10;99837.12;;;21.16;35.83
51249;BME280;39642;47.556;18.728;2023-05-01T11:31:37;99824.84;;;21.15;35.89
51249;BME280;39642;47.556;18.728;2023-05-01T11:34:04;99828.34;;;21.15;35.74
51249;BME280;39642;47.556;18.728;2023-05-01T11:36:51;99824.75;;;21.16;35.62
51249;BME280;39642;47.556;18.728;2023-05-01T11:39:18;99814.16;;;21.16;35.69
51249;BME280;39642;47.556;18.728;2023-05-01T11:41:45;99819.44;;;21.16;35.80
51249;BME280;39642;47.556;18.728;2023-05-01T11:44:13;99828.34;;;21.15;35.80
51249;BME280;39642;47.556;18.728;2023-05-01T11:46:40;99819.44;;;21.16;35.79
51249;BME280;39642;47.556;18.728;2023-05-01T11:49:06;99816.81;;;21.16;35.58
51249;BME280;39642;47.556;18.728;2023-05-01T11:51:33;99814.16;;;21.16;35.59
51249;BME280;39642;47.556;18.728;2023-05-01T11:53:59;99803.56;;;21.16;35.60
51249;BME280;39642;47.556;18.728;2023-05-01T11:56:26;99805.28;;;21.17;35.64
51249;BME280;39642;47.556;18.728;2023-05-01T11:58:53;99806.22;;;21.16;35.51
51249;BME280;39642;47.556;18.728;2023-05-01T12:01:19;99803.56;;;21.16;35.51
51249;BME280;39642;47.556;18.728;2023-05-01T12:03:44;99798.28;;;21.16;35.61
51249;BME280;39642;47.556;18.728;2023-05-01T12:06:11;99798.28;;;21.16;35.69
51249;BME280;39642;47.556;18.728;2023-05-01T12:08:46;99798.28;;;21.16;35.60
51249;BME280;39642;47.556;18.728;2023-05-01T12:11:14;99804.44;;;21.17;35.78
51249;BME280;39642;47.556;18.728;2023-05-01T12:13:41;99803.56;;;21.16;35.75
51249;BME280;39642;47.556;18.728;2023-05-01T12:16:08;99801.88;;;21.15;35.81
51249;BME280;39642;47.556;18.728;2023-05-01T12:18:34;99801.03;;;21.15;36.20
51249;BME280;39642;47.556;18.728;2023-05-01T12:21:00;99792.31;;;21.13;35.97
51249;BME280;39642;47.556;18.728;2023-05-01T12:23:32;99793.16;;;21.13;35.93
51249;BME280;39642;47.556;18.728;2023-05-01T12:25:59;99789.69;;;21.13;35.95
51249;BME280;39642;47.556;18.728;2023-05-01T12:28:27;99779.94;;;21.13;35.95
51249;BME280;39642;47.556;18.728;2023-05-01T12:31:00;99778.25;;;21.12;35.92
51249;BME280;39642;47.556;18.728;2023-05-01T12:33:26;99779.09;;;21.13;35.99
51249;BME280;39642;47.556;18.728;2023-05-01T12:35:52;99771.16;;;21.13;36.00
51249;BME280;39642;47.556;18.728;2023-05-01T12:38:20;99772.84;;;21.14;36.04
51249;BME280;39642;47.556;18.728;2023-05-01T12:40:54;99768.50;;;21.13;36.05
51249;BME280;39642;47.556;18.728;2023-05-01T12:43:30;99772.00;;;21.13;36.08
51249;BME280;39642;47.556;18.728;2023-05-01T12:45:57;99765.00;;;21.12;36.25
51249;BME280;39642;47.556;18.728;2023-05-01T12:48:23;99765.00;;;21.12;36.43
51249;BME280;39642;47.556;18.728;2023-05-01T12:50:49;99758.94;;;21.10;36.41
51249;BME280;39642;47.556;18.728;2023-05-01T12:53:26;99761.59;;;21.10;36.37
51249;BME280;39642;47.556;18.728;2023-05-01T12:55:53;99757.22;;;21.09;36.39
51249;BME280;39642;47.556;18.728;2023-05-01T12:58:19;99764.25;;;21.10;36.37
51249;BME280;39642;47.556;18.728;2023-05-01T13:00:52;99754.59;;;21.09;36.42
51249;BME280;39642;47.556;18.728;2023-05-01T13:03:26;99740.41;;;21.10;36.41
51249;BME280;39642;47.556;18.728;2023-05-01T13:05:58;99743.06;;;21.10;36.50
51249;BME280;39642;47.556;18.728;2023-05-01T13:08:51;99735.97;;;21.11;36.50
51249;BME280;39642;47.556;18.728;2023-05-01T13:11:16;99737.66;;;21.12;36.45
51249;BME280;39642;47.556;18.728;2023-05-01T13:13:43;99729.81;;;21.10;36.43
51249;BME280;39642;47.556;18.728;2023-05-01T13:16:14;99731.50;;;21.11;36.53
51249;BME280;39642;47.556;18.728;2023-05-01T13:18:45;99725.28;;;21.12;36.56